Toddville, Iowa
Current Conditions -  °F | °C
As of 1:34 PM on Sunday 23 Nov 2014 (Local Time) from KCID Reporting Station
Light Rain Light Rain  
Wind Chill: 50°   Ceiling: 400
Heat Index: 50°   Visibility: 2.5mi
Dew Point: 50°   Wind: 8mph
Humidity: 100%   Direction: 140°SE
Pressure: 29.38"   Gusts: NA
Location:  42.1°N, 91.72°W
Report Text: KCID 231934Z 14007KT 2 1/2SM -RA BR OVC004 10/10 A2938 RMK AO2 P0005 T01000100
Loading
Personal Weather Stations






























Interactive Weather Map New forecast layout! Learn more

10-Day Weather Forecast

Advertisements
Track Severe Weather on mobile